New Century 1 — H9LA — position and weather

sailwx.info

Track history (hours):
 
Tides and Currents Weather Stations Pressure Air Temp Water Temp Dewpoint Dewpoint Depression Visibility Wind Speed Wind Dir Waves Ship Positions

New Century 1

Last reported at 2016-Jun-23 20:22 UTC. Time now 2016-Jun-25 23:17 UTC.
Position N 08°52' W 079°31'.

Length 200 m; beam 32.3 m.

Type: Cargo ship. MMSI: 355234000.

Date/timePositionNaut miles runAvg speedWind from/ knotsBaromVisibWave heightAir tempDewpointWater temp
2016-Jun-23 20:22N 08°52' W 079°31'7 8.2
2016-Jun-23 19:32N 08°58' W 079°35'3 2.1
2016-Jun-23 18:17N 09°00' W 079°36'3 2.4
2016-Jun-23 17:06N 09°02' W 079°38'5 7.5
2016-Jun-23 16:27N 09°06' W 079°41'4 4.8
2016-Jun-23 15:33N 09°07' W 079°45'7 6.8
2016-Jun-23 14:33N 09°11' W 079°51'5 5.0
2016-Jun-23 13:33N 09°13' W 079°55'2 2.0
2016-Jun-23 12:33N 09°15' W 079°55'1 1.0
2016-Jun-23 11:33N 09°16' W 079°55'1 1.4
2016-Jun-23 10:33N 09°18' W 079°55'5 4.9
2016-Jun-23 09:33N 09°23' W 079°55'4 3.7
2016-Jun-23 08:32N 09°26' W 079°57'0 0.1
2016-Jun-23 07:27N 09°26' W 079°57'0 0.0
2016-Jun-23 05:26N 09°26' W 079°57'0 0.0
2016-Jun-23 04:30N 09°26' W 079°57'0 0.0
2016-Jun-23 03:32N 09°26' W 079°57'0 0.0
2016-Jun-23 02:32N 09°26' W 079°57'0 0.0
2016-Jun-23 01:32N 09°26' W 079°57'0 0.0
2016-Jun-23 00:29N 09°26' W 079°57'0 0.0
2016-Jun-22 23:32N 09°26' W 079°57'0 0.0
2016-Jun-22 22:31N 09°26' W 079°57'0 0.0
2016-Jun-22 21:32N 09°26' W 079°57'0 0.0
2016-Jun-22 20:32N 09°26' W 079°57'0 0.0
2016-Jun-22 19:32N 09°26' W 079°57'0 0.0
2016-Jun-22 18:33N 09°26' W 079°57'0 0.0
2016-Jun-22 17:32N 09°26' W 079°57'0 0.0
2016-Jun-22 16:26N 09°26' W 079°57'0 0.1
2016-Jun-22 15:32N 09°26' W 079°57'4 3.6
2016-Jun-22 14:33N 09°29' W 079°54'1413.4
2016-Jun-22 13:33N 09°41' W 079°49'1716.6
2016-Jun-22 12:33N 09°56' W 079°42'  
2016-Jun-18 07:18N 38°33' W 072°08'1418.7
2016-Jun-18 06:33N 38°45' W 072°18'1818.4
2016-Jun-18 05:34N 39°00' W 072°31'1918.9
2016-Jun-18 04:34N 39°15' W 072°45'1919.0
2016-Jun-18 03:33N 39°32' W 072°57'1919.3
2016-Jun-18 02:33N 39°48' W 073°11'1919.3
2016-Jun-18 01:33N 40°04' W 073°26'1919.0
2016-Jun-18 00:34N 40°19' W 073°41'1313.0
2016-Jun-17 23:34N 40°28' W 073°53'1313.2
2016-Jun-17 22:33N 40°39' W 074°04'4 3.9
2016-Jun-17 21:34N 40°40' W 074°08'1 1.0
2016-Jun-17 20:32N 40°41' W 074°08'0 0.0
2016-Jun-17 19:29N 40°41' W 074°08'0 0.0
2016-Jun-17 18:32N 40°41' W 074°08'0 0.0
2016-Jun-17 17:32N 40°41' W 074°08'0 0.0
2016-Jun-17 16:29N 40°41' W 074°08'0 0.0
2016-Jun-17 15:32N 40°41' W 074°08'0 0.0
2016-Jun-17 14:32N 40°41' W 074°08'0 0.0
2016-Jun-17 13:32N 40°41' W 074°08'0 0.0
2016-Jun-17 12:32N 40°41' W 074°08'0 0.0
2016-Jun-17 11:32N 40°41' W 074°08'0 0.0
2016-Jun-17 10:32N 40°41' W 074°08'0 0.0
2016-Jun-17 09:32N 40°41' W 074°08'0 0.0
2016-Jun-17 08:32N 40°41' W 074°08'0 0.0
2016-Jun-17 07:32N 40°41' W 074°08'0 0.0
2016-Jun-17 06:32N 40°41' W 074°08'0 0.0
2016-Jun-17 05:32N 40°41' W 074°08'0 0.0
2016-Jun-17 04:32N 40°41' W 074°08'0 0.0
2016-Jun-17 03:32N 40°41' W 074°08'0 0.0
2016-Jun-17 02:32N 40°41' W 074°08'0 0.0
2016-Jun-17 01:29N 40°41' W 074°08'0 0.0
2016-Jun-17 00:32N 40°41' W 074°08'1 0.7
2016-Jun-16 23:33N 40°41' W 074°08'4 4.2
2016-Jun-16 22:33N 40°38' W 074°03'1010.1
2016-Jun-16 21:33N 40°30' W 073°56'10 9.6
2016-Jun-16 20:33N 40°23' W 073°47'1010.5
2016-Jun-16 19:33N 40°13' W 073°45'1110.6
2016-Jun-16 18:33N 40°02' W 073°44'1211.6
2016-Jun-16 17:33N 39°51' W 073°42'1010.4
2016-Jun-16 16:33N 39°41' W 073°37'5 5.4
2016-Jun-16 15:33N 39°36' W 073°35'1 1.0
2016-Jun-16 14:33N 39°35' W 073°34'9 8.6
2016-Jun-16 13:33N 39°27' W 073°37'3917.4
2016-Jun-16 11:19N 38°49' W 073°51'1417.6
2016-Jun-16 10:32N 38°36' W 073°54'29018.1
2016-Jun-15 18:31N 34°03' W 075°53'349 8.7
2016-Jun-14 02:32N 29°36' W 080°18'  
Track history (hours):
 
Tides and Currents Weather Stations Pressure Air Temp Water Temp Dewpoint Dewpoint Depression Visibility Wind Speed Wind Dir Waves Ship Positions

New Century 1

Last reported at 2016-Jun-23 20:22 UTC. Time now 2016-Jun-25 23:17 UTC.
Position N 08°52' W 079°31'.

Length 200 m; beam 32.3 m.

Type: Cargo ship. MMSI: 355234000.

Date/timePositionNaut miles runAvg speedWind from/ knotsBaromVisibWave heightAir tempDewpointWater temp
2016-Jun-23 20:22N 08°52' W 079°31'7 8.2
2016-Jun-23 19:32N 08°58' W 079°35'3 2.1
2016-Jun-23 18:17N 09°00' W 079°36'3 2.4
2016-Jun-23 17:06N 09°02' W 079°38'5 7.5
2016-Jun-23 16:27N 09°06' W 079°41'4 4.8
2016-Jun-23 15:33N 09°07' W 079°45'7 6.8
2016-Jun-23 14:33N 09°11' W 079°51'5 5.0
2016-Jun-23 13:33N 09°13' W 079°55'2 2.0
2016-Jun-23 12:33N 09°15' W 079°55'1 1.0
2016-Jun-23 11:33N 09°16' W 079°55'1 1.4
2016-Jun-23 10:33N 09°18' W 079°55'5 4.9
2016-Jun-23 09:33N 09°23' W 079°55'4 3.7
2016-Jun-23 08:32N 09°26' W 079°57'0 0.1
2016-Jun-23 07:27N 09°26' W 079°57'0 0.0
2016-Jun-23 05:26N 09°26' W 079°57'0 0.0
2016-Jun-23 04:30N 09°26' W 079°57'0 0.0
2016-Jun-23 03:32N 09°26' W 079°57'0 0.0
2016-Jun-23 02:32N 09°26' W 079°57'0 0.0
2016-Jun-23 01:32N 09°26' W 079°57'0 0.0
2016-Jun-23 00:29N 09°26' W 079°57'0 0.0
2016-Jun-22 23:32N 09°26' W 079°57'0 0.0
2016-Jun-22 22:31N 09°26' W 079°57'0 0.0
2016-Jun-22 21:32N 09°26' W 079°57'0 0.0
2016-Jun-22 20:32N 09°26' W 079°57'0 0.0
2016-Jun-22 19:32N 09°26' W 079°57'0 0.0
2016-Jun-22 18:33N 09°26' W 079°57'0 0.0
2016-Jun-22 17:32N 09°26' W 079°57'0 0.0
2016-Jun-22 16:26N 09°26' W 079°57'0 0.1
2016-Jun-22 15:32N 09°26' W 079°57'4 3.6
2016-Jun-22 14:33N 09°29' W 079°54'1413.4
2016-Jun-22 13:33N 09°41' W 079°49'1716.6
2016-Jun-22 12:33N 09°56' W 079°42'  
2016-Jun-18 07:18N 38°33' W 072°08'1418.7
2016-Jun-18 06:33N 38°45' W 072°18'1818.4
2016-Jun-18 05:34N 39°00' W 072°31'1918.9
2016-Jun-18 04:34N 39°15' W 072°45'1919.0
2016-Jun-18 03:33N 39°32' W 072°57'1919.3
2016-Jun-18 02:33N 39°48' W 073°11'1919.3
2016-Jun-18 01:33N 40°04' W 073°26'1919.0
2016-Jun-18 00:34N 40°19' W 073°41'1313.0
2016-Jun-17 23:34N 40°28' W 073°53'1313.2
2016-Jun-17 22:33N 40°39' W 074°04'4 3.9
2016-Jun-17 21:34N 40°40' W 074°08'1 1.0
2016-Jun-17 20:32N 40°41' W 074°08'0 0.0
2016-Jun-17 19:29N 40°41' W 074°08'0 0.0
2016-Jun-17 18:32N 40°41' W 074°08'0 0.0
2016-Jun-17 17:32N 40°41' W 074°08'0 0.0
2016-Jun-17 16:29N 40°41' W 074°08'0 0.0
2016-Jun-17 15:32N 40°41' W 074°08'0 0.0
2016-Jun-17 14:32N 40°41' W 074°08'0 0.0
2016-Jun-17 13:32N 40°41' W 074°08'0 0.0
2016-Jun-17 12:32N 40°41' W 074°08'0 0.0
2016-Jun-17 11:32N 40°41' W 074°08'0 0.0
2016-Jun-17 10:32N 40°41' W 074°08'0 0.0
2016-Jun-17 09:32N 40°41' W 074°08'0 0.0
2016-Jun-17 08:32N 40°41' W 074°08'0 0.0
2016-Jun-17 07:32N 40°41' W 074°08'0 0.0
2016-Jun-17 06:32N 40°41' W 074°08'0 0.0
2016-Jun-17 05:32N 40°41' W 074°08'0 0.0
2016-Jun-17 04:32N 40°41' W 074°08'0 0.0
2016-Jun-17 03:32N 40°41' W 074°08'0 0.0
2016-Jun-17 02:32N 40°41' W 074°08'0 0.0
2016-Jun-17 01:29N 40°41' W 074°08'0 0.0
2016-Jun-17 00:32N 40°41' W 074°08'1 0.7
2016-Jun-16 23:33N 40°41' W 074°08'4 4.2
2016-Jun-16 22:33N 40°38' W 074°03'1010.1
2016-Jun-16 21:33N 40°30' W 073°56'10 9.6
2016-Jun-16 20:33N 40°23' W 073°47'1010.5
2016-Jun-16 19:33N 40°13' W 073°45'1110.6
2016-Jun-16 18:33N 40°02' W 073°44'1211.6
2016-Jun-16 17:33N 39°51' W 073°42'1010.4
2016-Jun-16 16:33N 39°41' W 073°37'5 5.4
2016-Jun-16 15:33N 39°36' W 073°35'1 1.0
2016-Jun-16 14:33N 39°35' W 073°34'9 8.6
2016-Jun-16 13:33N 39°27' W 073°37'3917.4
2016-Jun-16 11:19N 38°49' W 073°51'1417.6
2016-Jun-16 10:32N 38°36' W 073°54'29018.1
2016-Jun-15 18:31N 34°03' W 075°53'349 8.7
2016-Jun-14 02:32N 29°36' W 080°18'  

Dump ship's entire track history